DNIM

Details ICAO DNIM (QOW)
Name IMO
Region Nigeria
Timezone Africa/Lagos (UTC+1.0)
Plans Departing 4
Arriving 5
Stats Elevation 373 ft / 114 m (AMSL)
Location 5.427149° 7.206022°
Runways 1
Magnetic Variation 1.473° W
Sunrise 2017-12-13 05:32:28 UTC / 2017-12-13 06:32:28 Local
Sunset 2017-12-13 17:21:07 UTC / 2017-12-13 18:21:07 Local
Advertisement - Login to hide

Runways

ID Width Length Bearing (true) Bearing (mag) Surface Threshold Offset Overrun Length
17 148 ft / 45 m 8,918 ft / 2,718 m 167.19° 168.66° Asphalt 0 ft / 0 m 0 ft / 0 m
35 148 ft / 45 m 8,918 ft / 2,718 m 347.19° 348.66° Asphalt 0 ft / 0 m 0 ft / 0 m

Map

Weather


0- 5 10 15 20 25 30 35+ Temperature / ° C

Clouds and Precipitation
Forecast for 2017-12-13 12:00 UTC. Updated 22 minutes ago

Ground ~20,000 ft ~40,000 ft Winds

METAR

Not found

TAF

TAF DNIM 130350Z 1306/1412 33004KT 3000 HZ FEW009 BECMG 1310/1312 5000

Frequencies

Tower 118.40 MHz OWERRI TWR
Warning: Do not use this data for real-world aviation or navigation. No guarantee of current accuracy is given.